Time;durP1;ratioP1;P1;durP2;ratioP2;P2;SDS_P1;SDS_P2;PMS_P1;PMS_P2;Temp;Humidity;BMP_temperature;BMP_pressure;BME280_temperature;BME280_humidity;BME280_pressure;Samples;Min_cycle;Max_cycle;Signal;HPM_P1;HPM_P2
2021/07/28 00:02:08;;;;;;;2.55;2.35;;;;;;;;;;5014598;28;20499;-49
2021/07/28 00:04:38;;;;;;;3.00;2.40;;;24.30;94.80;;;;;;5014554;28;20030;-53
2021/07/28 00:07:05;;;;;;;2.30;2.10;;;24.20;87.90;;;;;;5014527;28;20026;-48
2021/07/28 00:09:31;;;;;;;3.28;2.67;;;24.30;97.40;;;;;;5014721;28;20382;-52
2021/07/28 00:11:57;;;;;;;3.15;2.53;;;;;;;;;;5014712;28;20033;-50
2021/07/28 00:14:23;;;;;;;2.75;2.55;;;24.00;97.30;;;;;;5014393;28;20030;-51
2021/07/28 00:16:48;;;;;;;4.28;3.00;;;24.20;97.40;;;;;;5014239;28;20568;-49
2021/07/28 00:24:31;;;;;;;2.53;2.33;;;24.20;97.40;;;;;;5014571;28;20065;-53
2021/07/28 00:26:58;;;;;;;2.67;2.45;;;23.60;97.30;;;;;;5014459;28;20382;-50
2021/07/28 00:29:24;;;;;;;2.58;2.38;;;;;;;;;;5014105;28;20466;-52
2021/07/28 00:31:50;;;;;;;3.38;2.60;;;24.10;97.40;;;;;;5014036;28;20037;-50
2021/07/28 00:34:16;;;;;;;2.95;2.47;;;23.90;72.80;;;;;;5014049;28;20022;-49
2021/07/28 00:36:42;;;;;;;2.65;2.15;;;;;;;;;;5013948;28;20466;-49
2021/07/28 00:39:08;;;;;;;2.90;2.70;;;;;;;;;;5013678;28;20068;-51
2021/07/28 00:41:33;;;;;;;2.88;2.30;;;24.20;97.50;;;;;;5013919;28;20032;-51
2021/07/28 00:43:59;;;;;;;2.88;2.55;;;24.20;97.60;;;;;;5013863;28;20089;-52
2021/07/28 00:46:24;;;;;;;3.08;2.30;;;23.60;97.30;;;;;;5013867;28;20014;-52
2021/07/28 00:48:50;;;;;;;3.13;2.63;;;;;;;;;;5013728;28;20482;-52
2021/07/28 00:51:16;;;;;;;2.58;2.38;;;23.90;71.40;;;;;;5013644;28;20037;-53
2021/07/28 00:53:42;;;;;;;2.92;2.60;;;;;;;;;;5013726;28;20100;-52
2021/07/28 00:56:10;;;;;;;2.40;2.03;;;24.20;97.50;;;;;;5013590;28;20022;-52
2021/07/28 00:58:36;;;;;;;3.17;2.10;;;;;;;;;;5013806;28;20146;-50
2021/07/28 01:01:02;;;;;;;3.03;2.45;;;;;;;;;;5013553;28;20052;-52
2021/07/28 01:03:28;;;;;;;2.67;2.47;;;;;;;;;;5013510;28;20030;-54
2021/07/28 01:05:57;;;;;;;2.70;2.50;;;24.00;69.30;;;;;;5012827;28;20021;-51
2021/07/28 01:08:23;;;;;;;3.05;2.47;;;;;;;;;;5013494;28;20029;-50
2021/07/28 01:10:50;;;;;;;2.95;2.65;;;;;;;;;;5013376;28;20038;-48
2021/07/28 01:13:25;;;;;;;3.35;2.00;;;23.90;74.80;;;;;;5013367;28;20033;-50
2021/07/28 01:15:54;;;;;;;2.90;2.65;;;;;;;;;;5013616;28;20083;-52
2021/07/28 01:18:20;;;;;;;2.50;2.30;;;;;;;;;;5013460;28;20410;-52
2021/07/28 01:20:47;;;;;;;2.88;2.50;;;24.00;75.10;;;;;;5013506;28;20468;-48
2021/07/28 01:23:26;;;;;;;3.70;2.67;;;23.90;97.70;;;;;;5013202;28;20034;-51
2021/07/28 01:25:53;;;;;;;2.80;2.50;;;23.80;75.00;;;;;;5013196;28;20371;-53
2021/07/28 01:28:25;;;;;;;2.60;2.22;;;24.30;70.00;;;;;;5013391;28;20382;-51
2021/07/28 01:30:59;;;;;;;2.42;2.22;;;23.90;69.80;;;;;;5013335;28;20033;-51
2021/07/28 01:33:25;;;;;;;2.38;2.17;;;;;;;;;;5013317;28;20025;-53
2021/07/28 01:35:51;;;;;;;3.10;2.53;;;23.70;97.60;;;;;;5012977;28;20116;-48
2021/07/28 01:38:22;;;;;;;4.88;2.75;;;;;;;;;;5012675;28;20115;-48
2021/07/28 01:40:48;;;;;;;2.40;2.20;;;;;;;;;;5013267;28;20387;-49
2021/07/28 01:43:15;;;;;;;3.90;2.42;;;23.80;75.00;;;;;;5012885;28;20421;-51
2021/07/28 01:45:41;;;;;;;2.90;2.42;;;23.80;75.10;;;;;;5013218;28;20089;-52
2021/07/28 01:48:07;;;;;;;2.50;2.30;;;;;;;;;;5012827;28;20018;-49
2021/07/28 01:50:33;;;;;;;2.88;2.60;;;;;;;;;;5013102;28;20037;-50
2021/07/28 01:53:03;;;;;;;3.03;2.80;;;23.80;70.00;;;;;;5012796;28;20030;-52
2021/07/28 01:55:29;;;;;;;3.97;2.78;;;;;;;;;;5012782;28;20026;-51
2021/07/28 01:57:55;;;;;;;3.13;2.58;;;23.60;97.70;;;;;;5012666;28;20042;-53
2021/07/28 02:00:21;;;;;;;3.10;2.58;;;23.60;97.60;;;;;;5012685;28;20416;-51
2021/07/28 02:02:47;;;;;;;2.72;2.47;;;;;;;;;;5012710;28;20030;-54
2021/07/28 02:05:13;;;;;;;3.35;2.88;;;;;;;;;;5012606;28;20052;-48
2021/07/28 02:07:39;;;;;;;2.40;2.20;;;;;;;;;;5012666;28;20030;-49
2021/07/28 02:10:06;;;;;;;2.58;2.38;;;24.30;75.00;;;;;;5012536;28;20023;-49
2021/07/28 02:12:32;;;;;;;2.65;2.45;;;;;;;;;;5012600;28;20014;-52
2021/07/28 02:14:58;;;;;;;2.60;2.40;;;;;;;;;;5012641;28;20493;-53
2021/07/28 02:17:24;;;;;;;2.78;2.58;;;;;;;;;;5014850;28;20036;-51
2021/07/28 02:19:50;;;;;;;2.58;2.35;;;;;;;;;;5016599;28;20037;-48
2021/07/28 02:22:16;;;;;;;2.67;2.30;;;;;;;;;;5016513;28;20026;-50
2021/07/28 02:24:42;;;;;;;2.70;2.47;;;;;;;;;;5016507;28;20029;-52
2021/07/28 02:27:09;;;;;;;2.58;2.38;;;23.70;73.00;;;;;;5016401;28;20060;-48
2021/07/28 02:29:35;;;;;;;2.85;2.65;;;23.70;74.70;;;;;;5016704;28;20029;-49
2021/07/28 02:32:02;;;;;;;3.63;3.05;;;;;;;;;;5016417;28;20071;-53
2021/07/28 02:34:32;;;;;;;2.75;2.55;;;23.70;75.10;;;;;;5016547;28;20444;-51
2021/07/28 02:36:58;;;;;;;2.55;2.33;;;23.70;73.60;;;;;;5016456;28;20018;-51
2021/07/28 02:39:25;;;;;;;3.30;2.65;;;;;;;;;;5015989;28;20034;-49
2021/07/28 02:41:51;;;;;;;3.40;2.80;;;;;;;;;;5016155;28;20080;-51
2021/07/28 02:44:17;;;;;;;2.90;2.70;;;;;;;;;;5016108;28;20436;-52
2021/07/28 02:46:43;;;;;;;3.25;2.33;;;23.80;97.70;;;;;;5016313;28;20377;-52
2021/07/28 02:49:09;;;;;;;2.58;2.38;;;;;;;;;;5016050;28;20435;-51
2021/07/28 02:51:35;;;;;;;3.28;2.72;;;;;;;;;;5016186;28;20088;-52
2021/07/28 02:54:01;;;;;;;2.38;2.17;;;;;;;;;;5015906;28;20421;-50
2021/07/28 02:56:27;;;;;;;6.60;2.67;;;;;;;;;;5015851;28;20105;-50
2021/07/28 02:58:54;;;;;;;2.55;2.35;;;;;;;;;;5015745;28;20038;-53
2021/07/28 03:01:19;;;;;;;2.90;2.60;;;;;;;;;;5015761;28;20037;-52
2021/07/28 03:03:45;;;;;;;4.45;2.47;;;;;;;;;;5015801;28;20026;-49
2021/07/28 03:06:11;;;;;;;4.20;2.55;;;;;;;;;;5015751;28;20053;-48
2021/07/28 03:08:37;;;;;;;2.63;2.42;;;23.80;97.80;;;;;;5015598;28;20029;-49
2021/07/28 03:11:03;;;;;;;3.67;2.63;;;;;;;;;;5015848;28;20029;-51
2021/07/28 03:13:29;;;;;;;2.40;2.20;;;;;;;;;;5015558;28;20026;-51
2021/07/28 03:15:55;;;;;;;3.45;2.90;;;;;;;;;;5015504;28;20033;-51
2021/07/28 03:18:21;;;;;;;3.33;2.58;;;;;;;;;;5015361;28;20042;-49
2021/07/28 03:20:47;;;;;;;2.90;2.60;;;23.80;97.70;;;;;;5015417;28;20104;-51
2021/07/28 03:23:13;;;;;;;5.13;3.05;;;;;;;;;;5015631;28;20072;-53
2021/07/28 03:25:39;;;;;;;3.00;2.70;;;;;;;;;;5015379;28;20018;-52
2021/07/28 03:28:04;;;;;;;4.38;2.80;;;23.70;95.30;;;;;;5014873;28;20497;-52
2021/07/28 03:30:30;;;;;;;3.08;2.78;;;;;;;;;;5015236;28;20385;-48
2021/07/28 03:32:56;;;;;;;3.22;2.92;;;;;;;;;;5015183;28;20021;-50
2021/07/28 03:35:22;;;;;;;3.03;2.80;;;;;;;;;;5015101;28;20542;-50
2021/07/28 03:37:48;;;;;;;3.03;2.60;;;;;;;;;;5015076;28;20037;-52
2021/07/28 03:40:14;;;;;;;3.63;2.88;;;;;;;;;;5014883;28;20383;-52
2021/07/28 03:42:41;;;;;;;3.03;2.80;;;;;;;;;;5015237;28;20072;-49
2021/07/28 03:45:07;;;;;;;3.53;3.08;;;23.70;96.40;;;;;;5015270;28;20049;-50
2021/07/28 03:47:33;;;;;;;3.03;2.72;;;;;;;;;;5014954;28;20426;-51
2021/07/28 03:49:59;;;;;;;2.45;2.25;;;23.80;97.70;;;;;;5014907;28;20030;-48
2021/07/28 03:52:25;;;;;;;2.95;2.70;;;23.80;97.90;;;;;;5014878;28;20018;-51
2021/07/28 03:54:51;;;;;;;4.10;3.05;;;;;;;;;;5014843;28;20026;-50
2021/07/28 03:57:17;;;;;;;3.35;3.05;;;;;;;;;;5014989;28;20029;-53
2021/07/28 03:59:43;;;;;;;3.03;2.70;;;;;;;;;;5014679;28;20033;-51
2021/07/28 04:02:12;;;;;;;2.90;2.70;;;;;;;;;;5014675;28;20371;-51
2021/07/28 04:04:38;;;;;;;2.88;2.60;;;;;;;;;;5014883;28;20030;-49
2021/07/28 04:07:04;;;;;;;3.22;2.95;;;;;;;;;;5014590;28;20026;-51
2021/07/28 04:09:30;;;;;;;2.80;2.60;;;;;;;;;;5014504;28;20105;-50
2021/07/28 04:11:56;;;;;;;3.33;2.50;;;;;;;;;;5014462;28;20053;-50
2021/07/28 04:14:22;;;;;;;2.78;2.58;;;;;;;;;;5014413;28;20041;-49
2021/07/28 04:16:48;;;;;;;3.08;2.83;;;;;;;;;;5014358;28;20470;-52
2021/07/28 04:19:14;;;;;;;3.60;3.30;;;;;;;;;;5014244;28;20038;-48
2021/07/28 04:21:40;;;;;;;3.60;3.10;;;;;;;;;;5014279;28;20502;-52
2021/07/28 04:24:05;;;;;;;3.97;2.58;;;23.70;98.10;;;;;;5014290;28;20057;-51
2021/07/28 04:26:31;;;;;;;3.03;2.72;;;;;;;;;;5014217;28;20092;-51
2021/07/28 04:28:57;;;;;;;3.00;2.70;;;;;;;;;;5014175;28;20029;-52
2021/07/28 04:31:23;;;;;;;3.08;2.80;;;23.60;97.90;;;;;;5014123;28;20022;-50
2021/07/28 04:33:48;;;;;;;3.28;2.97;;;23.80;88.30;;;;;;5014333;28;20018;-49
2021/07/28 04:36:14;;;;;;;3.28;2.97;;;;;;;;;;5014057;28;20030;-50
2021/07/28 04:38:40;;;;;;;2.83;2.63;;;23.70;90.10;;;;;;5013750;28;20099;-50
2021/07/28 04:41:06;;;;;;;3.00;2.80;;;;;;;;;;5012988;28;20018;-49
2021/07/28 04:43:32;;;;;;;3.22;3.00;;;;;;;;;;5013909;28;20030;-52
2021/07/28 04:45:59;;;;;;;3.40;3.10;;;23.60;97.90;;;;;;5013797;28;20033;-51
2021/07/28 04:48:26;;;;;;;2.90;2.70;;;23.50;97.90;;;;;;5013811;28;20022;-53
2021/07/28 04:50:53;;;;;;;3.70;3.30;;;23.50;75.20;;;;;;5013970;28;20030;-49
2021/07/28 04:53:19;;;;;;;2.88;2.58;;;;;;;;;;5013737;28;20026;-51
2021/07/28 04:55:54;;;;;;;3.97;3.13;;;23.50;75.20;;;;;;5013902;28;20033;-50
2021/07/28 04:58:20;;;;;;;3.33;2.70;;;;;;;;;;5013588;28;20038;-52
2021/07/28 05:00:49;;;;;;;3.88;3.03;;;23.50;75.30;;;;;;5013553;28;20084;-51
2021/07/28 05:03:15;;;;;;;3.28;3.03;;;;;;;;;;5013586;28;20079;-50
2021/07/28 05:05:41;;;;;;;3.40;3.10;;;;;;;;;;5013544;28;20026;-49
2021/07/28 05:08:07;;;;;;;4.47;3.03;;;;;;;;;;5013105;28;20033;-51
2021/07/28 05:10:33;;;;;;;2.97;2.63;;;;;;;;;;5011497;28;20102;-48
2021/07/28 05:12:59;;;;;;;3.53;2.85;;;;;;;;;;5011847;28;20123;-49
2021/07/28 05:15:25;;;;;;;4.03;2.60;;;;;;;;;;5012039;28;20034;-54
2021/07/28 05:17:51;;;;;;;3.25;2.95;;;;;;;;;;5013207;28;20433;-51
2021/07/28 05:20:18;;;;;;;3.28;3.00;;;;;;;;;;5013046;28;20030;-51
2021/07/28 05:22:44;;;;;;;3.30;2.97;;;;;;;;;;5013200;28;20493;-52
2021/07/28 05:25:11;;;;;;;2.90;2.70;;;;;;;;;;5013129;28;20034;-48
2021/07/28 05:27:37;;;;;;;3.95;2.70;;;;;;;;;;5013424;28;20049;-47
2021/07/28 05:30:03;;;;;;;4.20;3.10;;;23.60;79.00;;;;;;5013032;28;20482;-49
2021/07/28 05:32:29;;;;;;;3.05;2.75;;;;;;;;;;5013114;28;20025;-46
2021/07/28 05:34:55;;;;;;;2.75;2.53;;;23.80;97.80;;;;;;5013001;28;20025;-50
2021/07/28 05:37:21;;;;;;;3.00;2.38;;;;;;;;;;5013160;28;20034;-49
2021/07/28 05:39:47;;;;;;;4.03;3.10;;;;;;;;;;5012910;28;20115;-49
2021/07/28 05:42:13;;;;;;;3.03;2.72;;;;;;;;;;5012855;28;20026;-51
2021/07/28 05:44:39;;;;;;;3.45;3.03;;;;;;;;;;5012878;28;20442;-49
2021/07/28 05:47:06;;;;;;;4.43;3.10;;;23.80;97.60;;;;;;5012791;28;20022;-49
2021/07/28 05:49:32;;;;;;;4.90;2.70;;;;;;;;;;5013026;28;20459;-50
2021/07/28 05:51:58;;;;;;;4.45;3.05;;;;;;;;;;5012707;28;20438;-50
2021/07/28 05:54:24;;;;;;;3.75;2.78;;;;;;;;;;5012782;28;20022;-51
2021/07/28 05:56:50;;;;;;;4.72;3.28;;;23.50;75.10;;;;;;5012720;28;20474;-52
2021/07/28 05:59:17;;;;;;;4.25;2.75;;;;;;;;;;5012862;28;20393;-51
2021/07/28 06:01:43;;;;;;;5.90;3.00;;;;;;;;;;5012933;28;20444;-54
2021/07/28 06:04:09;;;;;;;4.07;2.75;;;;;;;;;;5012620;28;20030;-54
2021/07/28 06:06:35;;;;;;;4.93;2.92;;;;;;;;;;5013151;28;20033;-53
2021/07/28 06:09:01;;;;;;;3.40;3.10;;;;;;;;;;5012541;28;20026;-53
2021/07/28 06:11:27;;;;;;;5.57;3.25;;;;;;;;;;5012907;28;20455;-55
2021/07/28 06:13:52;;;;;;;3.35;3.05;;;;;;;;;;5012492;28;20079;-53
2021/07/28 06:16:18;;;;;;;4.22;3.22;;;;;;;;;;5012376;28;20026;-53
2021/07/28 06:18:44;;;;;;;4.18;2.92;;;;;;;;;;5012379;28;20504;-55
2021/07/28 06:21:10;;;;;;;4.45;3.20;;;;;;;;;;5012409;28;20030;-53
2021/07/28 06:23:36;;;;;;;7.03;3.15;;;;;;;;;;5012445;28;20029;-55
2021/07/28 06:26:03;;;;;;;3.92;3.63;;;;;;;;;;5012384;28;20105;-53
2021/07/28 06:28:29;;;;;;;3.03;2.70;;;;;;;;;;5012349;28;20030;-55
2021/07/28 06:30:55;;;;;;;7.68;3.40;;;;;;;;;;5012673;28;20425;-54
2021/07/28 06:33:22;;;;;;;4.28;3.20;;;23.70;74.30;;;;;;5012300;28;20417;-54
2021/07/28 06:35:48;;;;;;;5.50;3.33;;;;;;;;;;5012357;28;20053;-54
2021/07/28 06:38:14;;;;;;;3.60;3.28;;;;;;;;;;5012006;28;20038;-55
2021/07/28 06:40:41;;;;;;;8.25;3.15;;;;;;;;;;5012320;28;20478;-54
2021/07/28 06:43:07;;;;;;;4.90;3.28;;;;;;;;;;5012239;28;20041;-55
2021/07/28 06:45:33;;;;;;;5.07;3.58;;;;;;;;;;5012521;28;20109;-53
2021/07/28 06:47:59;;;;;;;3.60;3.30;;;;;;;;;;5012213;28;20057;-55
2021/07/28 06:50:25;;;;;;;5.75;3.60;;;;;;;;;;5012148;28;20049;-54
2021/07/28 06:52:51;;;;;;;6.32;3.40;;;;;;;;;;5012395;28;20029;-52
2021/07/28 06:55:17;;;;;;;4.90;2.90;;;;;;;;;;5012062;28;20018;-51
2021/07/28 06:57:43;;;;;;;4.50;3.45;;;;;;;;;;5012086;28;20034;-55
2021/07/28 07:00:09;;;;;;;8.77;3.83;;;;;;;;;;5012044;28;20521;-54
2021/07/28 07:02:35;;;;;;;4.53;2.95;;;;;;;;;;5012314;28;20029;-54
2021/07/28 07:05:01;;;;;;;4.05;3.40;;;;;;;;;;5015433;28;20103;-52
2021/07/28 07:07:28;;;;;;;4.88;3.75;;;;;;;;;;5015505;28;20032;-55
2021/07/28 07:09:54;;;;;;;4.93;3.58;;;;;;;;;;5015623;28;20041;-54
2021/07/28 07:12:20;;;;;;;6.03;3.40;;;;;;;;;;5015500;28;20037;-55
2021/07/28 07:14:47;;;;;;;4.45;3.65;;;;;;;;;;5015467;28;20033;-54
2021/07/28 07:17:13;;;;;;;4.57;3.17;;;;;;;;;;5015422;28;20105;-55
2021/07/28 07:19:39;;;;;;;7.45;3.53;;;;;;;;;;5015576;28;20117;-53
2021/07/28 07:22:05;;;;;;;4.85;3.38;;;;;;;;;;5015420;28;20033;-54
2021/07/28 07:24:31;;;;;;;6.22;3.00;;;;;;;;;;5015596;28;20421;-55
2021/07/28 07:26:57;;;;;;;3.72;3.30;;;;;;;;;;5015628;28;20377;-51
2021/07/28 07:29:23;;;;;;;5.00;2.67;;;23.70;96.90;;;;;;5015178;28;20037;-54
2021/07/28 07:31:49;;;;;;;3.55;3.20;;;;;;;;;;5015316;28;20022;-55
2021/07/28 07:34:15;;;;;;;3.88;2.92;;;;;;;;;;5015210;28;20026;-52
2021/07/28 07:36:41;;;;;;;6.15;3.15;;;;;;;;;;5015230;28;20034;-54
2021/07/28 07:39:08;;;;;;;5.28;2.83;;;;;;;;;;5014842;28;20038;-55
2021/07/28 07:41:34;;;;;;;4.57;3.05;;;;;;;;;;5015223;28;20165;-53
2021/07/28 07:44:00;;;;;;;3.13;2.80;;;;;;;;;;5015539;28;20219;-54
2021/07/28 07:46:26;;;;;;;5.45;3.13;;;;;;;;;;5014913;28;20382;-54
2021/07/28 07:48:52;;;;;;;7.72;3.80;;;;;;;;;;5014853;28;20074;-55
2021/07/28 07:51:19;;;;;;;4.18;3.08;;;;;;;;;;5015170;28;20510;-55
2021/07/28 07:53:45;;;;;;;8.98;3.40;;;;;;;;;;5015128;28;20116;-56
2021/07/28 07:56:12;;;;;;;4.25;2.90;;;;;;;;;;5015004;28;20061;-54
2021/07/28 07:58:38;;;;;;;4.05;3.17;;;;;;;;;;5014699;28;20552;-55
2021/07/28 08:01:11;;;;;;;4.93;3.00;;;23.70;97.10;;;;;;5014763;28;20034;-53
2021/07/28 08:03:38;;;;;;;4.03;2.90;;;23.70;72.30;;;;;;5014698;28;20036;-56
2021/07/28 08:06:05;;;;;;;3.88;2.88;;;;;;;;;;5014610;28;20032;-54
2021/07/28 08:08:31;;;;;;;4.53;2.70;;;;;;;;;;5014807;28;20034;-54
2021/07/28 08:10:57;;;;;;;5.15;3.25;;;;;;;;;;5014814;28;20029;-54
2021/07/28 08:13:23;;;;;;;4.53;2.72;;;23.60;71.80;;;;;;5014433;28;20026;-56
2021/07/28 08:15:49;;;;;;;5.75;3.10;;;;;;;;;;5014295;28;20367;-55
2021/07/28 08:18:16;;;;;;;2.85;2.55;;;;;;;;;;5014276;28;20041;-56
2021/07/28 08:20:42;;;;;;;4.00;2.88;;;;;;;;;;5014524;28;20022;-56
2021/07/28 08:23:08;;;;;;;2.78;2.22;;;;;;;;;;5014315;28;20070;-55
2021/07/28 08:25:34;;;;;;;3.75;2.72;;;;;;;;;;5014235;28;20022;-52
2021/07/28 08:28:00;;;;;;;2.80;2.47;;;;;;;;;;5014439;28;20406;-54
2021/07/28 08:30:26;;;;;;;3.53;2.85;;;;;;;;;;5014397;28;20104;-56
2021/07/28 08:32:52;;;;;;;3.58;2.70;;;;;;;;;;5014055;28;20184;-55
2021/07/28 08:35:18;;;;;;;5.20;2.70;;;;;;;;;;5014066;28;20033;-54
2021/07/28 08:37:44;;;;;;;3.95;2.88;;;;;;;;;;5013869;28;20029;-52
2021/07/28 08:40:12;;;;;;;2.90;2.38;;;23.60;73.20;;;;;;5013826;28;20117;-54
2021/07/28 08:42:40;;;;;;;3.88;2.65;;;23.60;73.10;;;;;;5014224;28;20367;-55
2021/07/28 08:45:07;;;;;;;6.07;2.50;;;24.30;71.00;;;;;;5013823;28;20049;-53
2021/07/28 08:47:35;;;;;;;3.90;2.40;;;23.60;73.20;;;;;;5013583;28;20096;-56
2021/07/28 08:50:05;;;;;;;2.63;2.35;;;23.60;73.10;;;;;;5013809;28;20026;-54
2021/07/28 08:52:34;;;;;;;4.75;2.90;;;23.50;73.00;;;;;;5014089;28;20026;-55
2021/07/28 08:54:59;;;;;;;4.18;2.30;;;23.70;96.90;;;;;;5013740;28;20014;-55
2021/07/28 08:57:27;;;;;;;4.00;2.55;;;23.60;72.70;;;;;;5013617;28;20107;-54
2021/07/28 08:59:56;;;;;;;5.13;2.75;;;23.80;73.00;;;;;;5013573;28;20437;-56
2021/07/28 09:02:22;;;;;;;4.83;2.80;;;;;;;;;;5013549;28;20478;-54
2021/07/28 09:04:49;;;;;;;2.72;2.30;;;;;;;;;;5013457;28;20157;-55
2021/07/28 09:07:15;;;;;;;2.53;2.22;;;;;;;;;;5013713;28;20558;-60
2021/07/28 09:09:54;;;;;;;6.82;2.72;;;23.50;67.00;;;;;;5013646;28;20032;-56
2021/07/28 09:12:21;;;;;;;3.50;2.20;;;;;;;;;;5013456;28;20076;-55
2021/07/28 09:14:55;;;;;;;7.15;2.90;;;24.00;67.10;;;;;;5013641;28;20026;-57
2021/07/28 09:17:26;;;;;;;6.38;2.50;;;;;;;;;;5013222;28;20030;-55
2021/07/28 09:19:52;;;;;;;3.75;2.30;;;;;;;;;;5013294;28;20108;-55
2021/07/28 09:22:19;;;;;;;4.20;2.58;;;;;;;;;;5013243;28;20053;-56
2021/07/28 09:25:04;;;;;;;4.78;2.28;;;23.70;71.50;;;;;;5013174;28;20406;-55
2021/07/28 09:27:43;;;;;;;6.70;2.95;;;23.70;67.60;;;;;;5012872;28;20025;-54
2021/07/28 09:30:11;;;;;;;3.60;2.47;;;23.70;72.70;;;;;;5013121;28;20060;-56
2021/07/28 09:33:11;;;;;;;2.67;2.47;;;23.60;72.70;;;;;;5013126;28;20033;-56
2021/07/28 09:35:49;;;;;;;6.10;3.00;;;23.70;96.60;;;;;;5013322;28;20072;-55
2021/07/28 09:38:31;;;;;;;6.20;2.72;;;23.50;69.40;;;;;;5012670;28;20065;-56
2021/07/28 09:41:19;;;;;;;3.67;2.40;;;23.70;67.40;;;;;;5012980;28;20076;-56
2021/07/28 09:43:47;;;;;;;3.35;2.78;;;23.60;72.70;;;;;;5013141;28;20030;-55
2021/07/28 09:46:38;;;;;;;5.00;2.42;;;23.80;68.20;;;;;;5012841;28;20021;-57
2021/07/28 09:49:09;;;;;;;7.13;2.60;;;23.70;72.80;;;;;;5012833;28;20037;-55
2021/07/28 09:51:39;;;;;;;7.00;2.85;;;23.60;67.60;;;;;;5013168;28;20101;-54
2021/07/28 09:54:08;;;;;;;12.43;2.30;;;23.70;96.60;;;;;;5013027;28;20124;-54
2021/07/28 09:56:34;;;;;;;3.70;2.80;;;;;;;;;;5012816;28;20500;-53
2021/07/28 09:59:00;;;;;;;5.32;2.42;;;;;;;;;;5012646;28;20037;-55
2021/07/28 10:01:28;;;;;;;5.75;2.13;;;23.70;72.20;;;;;;5012766;28;20053;-52
2021/07/28 10:03:54;;;;;;;3.40;2.50;;;;;;;;;;5013039;28;20026;-55
2021/07/28 10:06:23;;;;;;;4.47;2.42;;;23.70;70.10;;;;;;5012650;28;20064;-52
2021/07/28 10:08:52;;;;;;;7.28;2.47;;;23.70;72.30;;;;;;5012949;28;20068;-53
2021/07/28 10:11:22;;;;;;;3.73;2.40;;;23.80;71.00;;;;;;5012759;28;20025;-54
2021/07/28 10:13:49;;;;;;;8.48;2.33;;;23.70;70.20;;;;;;5012709;28;20032;-54
2021/07/28 10:16:16;;;;;;;4.78;2.40;;;23.80;72.40;;;;;;5012597;28;20018;-54
2021/07/28 10:18:48;;;;;;;5.90;2.50;;;23.80;72.40;;;;;;5012515;28;20037;-55
2021/07/28 10:21:15;;;;;;;4.85;2.20;;;;;;;;;;5012814;28;20058;-54
2021/07/28 10:23:43;;;;;;;3.30;2.30;;;23.80;71.80;;;;;;5012497;28;20037;-51
2021/07/28 10:26:12;;;;;;;3.58;2.20;;;23.80;72.20;;;;;;5012689;28;20076;-54
2021/07/28 10:28:38;;;;;;;4.53;2.60;;;;;;;;;;5012778;28;20053;-55
2021/07/28 10:31:14;;;;;;;3.60;2.45;;;23.90;66.80;;;;;;5012453;28;20552;-50
2021/07/28 10:33:51;;;;;;;4.88;2.40;;;24.20;67.00;;;;;;5012696;28;20125;-52
2021/07/28 10:36:40;;;;;;;1.95;1.80;;;23.90;72.20;;;;;;5012401;28;20510;-54
2021/07/28 10:39:06;;;;;;;5.53;2.22;;;;;;;;;;5013350;28;20049;-54
2021/07/28 10:41:43;;;;;;;3.75;1.90;;;24.20;96.20;;;;;;5016410;28;20529;-54
2021/07/28 10:44:18;;;;;;;5.30;2.15;;;24.20;96.50;;;;;;5016160;28;20128;-52
2021/07/28 10:46:53;;;;;;;2.38;2.10;;;24.00;67.00;;;;;;5016277;28;20018;-54
2021/07/28 10:49:37;;;;;;;3.83;2.45;;;24.20;96.30;;;;;;5016110;28;20110;-54
2021/07/28 10:52:03;;;;;;;3.22;2.05;;;23.80;72.10;;;;;;5015996;28;20536;-54
2021/07/28 10:54:52;;;;;;;5.55;2.20;;;26.10;68.20;;;;;;5016022;28;20344;-55
2021/07/28 10:57:33;;;;;;;4.53;2.33;;;24.00;66.80;;;;;;5005407;28;20062;-56
2021/07/28 11:00:00;;;;;;;3.33;1.98;;;;;;;;;;5016160;28;20026;-54
2021/07/28 11:02:59;;;;;;;2.17;1.98;;;24.00;66.70;;;;;;5015736;28;20463;-52
2021/07/28 11:05:30;;;;;;;2.80;1.73;;;24.00;72.10;;;;;;5015800;28;20026;-55
2021/07/28 11:08:02;;;;;;;4.38;2.33;;;24.00;66.80;;;;;;5015863;28;20036;-54
2021/07/28 11:10:40;;;;;;;2.10;1.90;;;24.00;66.90;;;;;;5015643;28;20057;-55
2021/07/28 11:13:11;;;;;;;3.63;2.08;;;24.00;67.10;;;;;;5015611;28;20501;-53
2021/07/28 11:15:39;;;;;;;3.13;2.17;;;24.00;69.70;;;;;;5015666;28;20041;-53
2021/07/28 11:18:05;;;;;;;3.25;2.08;;;;;;;;;;5015446;28;20030;-54
2021/07/28 11:20:38;;;;;;;2.53;1.80;;;24.20;66.80;;;;;;5015696;28;20037;-55
2021/07/28 11:23:25;;;;;;;2.30;1.83;;;23.90;66.90;;;;;;5015569;28;20030;-54
2021/07/28 11:25:55;;;;;;;1.85;1.70;;;24.30;92.10;;;;;;5015672;28;20477;-44
2021/07/28 11:28:22;;;;;;;3.72;2.03;;;;;;;;;;5015277;28;20030;-44
2021/07/28 11:30:58;;;;;;;2.45;1.90;;;23.90;66.90;;;;;;5015290;28;20050;-44
2021/07/28 11:33:25;;;;;;;3.83;2.13;;;24.00;96.40;;;;;;5015283;28;20029;-45
2021/07/28 11:35:52;;;;;;;3.75;1.98;;;24.00;70.20;;;;;;5015277;28;20030;-45
2021/07/28 11:38:18;;;;;;;3.00;1.85;;;;;;;;;;5014932;28;20568;-44
2021/07/28 11:40:57;;;;;;;2.35;2.20;;;24.10;96.40;;;;;;5015191;28;20030;-43
2021/07/28 11:43:34;;;;;;;2.80;1.55;;;24.10;96.30;;;;;;5015191;28;20473;-45
2021/07/28 11:46:03;;;;;;;2.17;1.80;;;24.00;72.20;;;;;;5015099;28;20075;-44
2021/07/28 11:48:33;;;;;;;2.55;2.00;;;24.20;96.30;;;;;;5015006;28;20018;-46
2021/07/28 11:51:03;;;;;;;2.65;2.08;;;24.00;70.60;;;;;;5014682;28;20026;-45
2021/07/28 11:53:30;;;;;;;3.17;1.88;;;24.20;96.40;;;;;;5014835;28;20112;-44
2021/07/28 11:56:07;;;;;;;2.67;1.60;;;24.30;96.40;;;;;;5014894;28;20032;-43
2021/07/28 11:58:33;;;;;;;2.95;1.70;;;;;;;;;;5014995;28;20038;-45
2021/07/28 12:01:25;;;;;;;3.83;2.10;;;24.00;72.50;;;;;;5015034;28;20029;-44
2021/07/28 12:04:08;;;;;;;3.17;1.80;;;24.10;67.50;;;;;;5014730;28;20068;-44
2021/07/28 12:06:34;;;;;;;2.30;1.73;;;;;;;;;;5014706;28;20033;-44
2021/07/28 12:09:26;;;;;;;2.10;1.75;;;24.40;72.70;;;;;;5014861;28;20041;-44
2021/07/28 12:11:52;;;;;;;3.20;1.90;;;;;;;;;;5014518;28;20025;-45
2021/07/28 12:14:38;;;;;;;2.83;1.67;;;24.10;67.40;;;;;;5014783;28;20025;-45
2021/07/28 12:17:05;;;;;;;2.42;2.10;;;24.00;72.60;;;;;;5014735;28;20022;-44
2021/07/28 12:19:32;;;;;;;2.05;1.65;;;23.90;72.50;;;;;;5014251;28;20033;-44
2021/07/28 12:22:03;;;;;;;2.60;1.60;;;24.00;71.90;;;;;;5014347;28;20022;-45
2021/07/28 12:24:29;;;;;;;;;;;24.10;67.60;;;;;;5014766;28;20033;-45
2021/07/28 12:26:56;;;;;;;2.33;1.70;;;;;;;;;;5014497;28;20308;-44
2021/07/28 12:29:34;;;;;;;1.83;1.27;;;24.10;67.10;;;;;;5014218;28;20572;-45
2021/07/28 12:32:16;;;;;;;1.40;1.30;;;24.00;67.20;;;;;;5014159;28;20193;-44
2021/07/28 12:34:42;;;;;;;3.25;1.70;;;;;;;;;;5014104;28;20030;-44
2021/07/28 12:37:18;;;;;;;1.98;1.35;;;24.30;96.50;;;;;;5014029;28;20084;-45
2021/07/28 12:39:43;;;;;;;1.60;1.50;;;24.30;96.40;;;;;;5013907;28;20038;-43
2021/07/28 12:42:09;;;;;;;1.80;1.60;;;;;;;;;;5013964;28;20076;-45
2021/07/28 12:44:35;;;;;;;3.00;1.45;;;;;;;;;;5014185;28;20088;-44
2021/07/28 12:47:01;;;;;;;2.25;1.60;;;;;;;;;;5014186;28;20030;-44
2021/07/28 12:49:27;;;;;;;1.55;1.30;;;;;;;;;;5013869;28;20482;-45
2021/07/28 12:51:53;;;;;;;2.25;1.65;;;;;;;;;;5013750;28;20517;-44
2021/07/28 12:54:19;;;;;;;3.03;1.60;;;;;;;;;;5014116;28;20386;-44
2021/07/28 12:56:45;;;;;;;2.72;1.50;;;;;;;;;;5013717;28;20393;-45
2021/07/28 12:59:11;;;;;;;2.22;1.42;;;;;;;;;;5013572;28;20041;-44
2021/07/28 13:01:37;;;;;;;3.33;1.65;;;;;;;;;;5013305;28;20359;-45
2021/07/28 13:04:04;;;;;;;2.33;1.40;;;;;;;;;;5013873;28;20029;-44
2021/07/28 13:06:30;;;;;;;2.17;1.63;;;;;;;;;;5013629;28;20413;-47
2021/07/28 13:08:56;;;;;;;2.08;1.48;;;;;;;;;;5013655;28;20386;-45
2021/07/28 13:11:22;;;;;;;1.67;1.33;;;;;;;;;;5013420;28;20065;-44
2021/07/28 13:13:48;;;;;;;1.92;1.40;;;;;;;;;;5013420;28;20474;-44
2021/07/28 13:16:14;;;;;;;1.80;1.50;;;;;;;;;;5013333;28;20033;-44
2021/07/28 13:18:40;;;;;;;1.33;1.23;;;;;;;;;;5013382;28;20038;-44
2021/07/28 13:21:06;;;;;;;2.60;1.50;;;;;;;;;;5013216;28;20023;-45
2021/07/28 13:23:32;;;;;;;2.40;1.48;;;;;;;;;;5013236;28;20056;-45
2021/07/28 13:25:58;;;;;;;2.90;1.52;;;;;;;;;;5013239;28;20028;-44
2021/07/28 13:28:24;;;;;;;2.30;1.50;;;;;;;;;;5013165;28;20026;-44
2021/07/28 13:30:50;;;;;;;1.60;1.50;;;;;;;;;;5013282;28;20161;-45
2021/07/28 13:33:16;;;;;;;2.97;1.65;;;;;;;;;;5013265;28;20397;-45
2021/07/28 13:35:42;;;;;;;2.25;1.70;;;24.20;72.60;;;;;;5013134;28;20032;-44
2021/07/28 13:38:08;;;;;;;1.50;1.40;;;;;;;;;;5012718;28;20026;-45
2021/07/28 13:40:34;;;;;;;1.65;1.52;;;;;;;;;;5013302;28;20113;-44
2021/07/28 13:43:01;;;;;;;1.42;1.33;;;;;;;;;;5012985;28;20130;-44
2021/07/28 13:45:27;;;;;;;1.60;1.50;;;;;;;;;;5013002;28;20429;-44
2021/07/28 13:47:53;;;;;;;1.92;1.33;;;;;;;;;;5012898;28;20030;-44
2021/07/28 13:50:20;;;;;;;2.47;1.60;;;24.20;72.70;;;;;;5012966;28;20389;-44
2021/07/28 13:52:47;;;;;;;1.48;1.38;;;24.10;72.70;;;;;;5012909;28;20026;-44
2021/07/28 13:55:13;;;;;;;1.48;1.38;;;;;;;;;;5012781;28;20026;-44
2021/07/28 13:57:40;;;;;;;2.00;1.40;;;;;;;;;;5013253;28;20034;-45
2021/07/28 14:00:06;;;;;;;2.85;1.33;;;24.30;96.60;;;;;;5012687;28;20478;-45
2021/07/28 14:02:32;;;;;;;1.60;1.50;;;;;;;;;;5012931;28;20018;-43
2021/07/28 14:05:01;;;;;;;2.38;1.42;;;24.10;72.80;;;;;;5012844;28;20104;-46